Time;durP1;ratioP1;P1;durP2;ratioP2;P2;SDS_P1;SDS_P2;PMS_P1;PMS_P2;Temp;Humidity;BMP_temperature;BMP_pressure;BME280_temperature;BME280_humidity;BME280_pressure;Samples;Min_cycle;Max_cycle;Signal;HPM_P1;HPM_P2
2023/10/21 00:00:23;;;;;;;6.88;4.07;;;6.90;99.90;;;6.95;100.00;98630.75;5067709;28;20631;-66
2023/10/21 00:02:52;;;;;;;7.78;5.63;;;6.90;99.90;;;6.92;100.00;98639.31;5076986;28;20547;-66
2023/10/21 00:05:24;;;;;;;8.07;5.15;;;6.90;99.90;;;6.95;100.00;98660.34;5084548;28;20541;-68
2023/10/21 00:07:53;;;;;;;12.63;6.72;;;6.90;99.90;;;6.94;100.00;98656.84;5083722;28;20196;-68
2023/10/21 00:10:21;;;;;;;12.13;5.45;;;6.90;99.90;;;7.03;100.00;98661.84;5079184;28;20194;-67
2023/10/21 00:12:50;;;;;;;9.07;3.90;;;6.90;99.90;;;6.98;100.00;98667.94;5085387;28;20302;-68
2023/10/21 00:15:18;;;;;;;9.10;4.57;;;6.90;99.90;;;7.10;100.00;98667.94;5089463;28;20187;-67
2023/10/21 00:17:46;;;;;;;13.93;4.55;;;7.00;99.90;;;7.10;100.00;98674.16;5072984;28;20225;-68
2023/10/21 00:20:14;;;;;;;11.23;5.50;;;7.00;99.90;;;7.09;100.00;98682.44;5085528;28;20207;-67
2023/10/21 00:22:44;;;;;;;9.35;5.78;;;7.00;99.90;;;7.09;100.00;98690.50;5083522;28;20237;-68
2023/10/21 00:25:12;;;;;;;7.50;4.70;;;7.00;99.90;;;7.06;100.00;98682.91;5079362;28;20657;-68
2023/10/21 00:27:41;;;;;;;14.70;4.95;;;7.00;99.90;;;7.06;100.00;98678.38;5080929;28;20266;-67
2023/10/21 00:30:11;;;;;;;15.77;6.25;;;7.00;99.90;;;6.99;100.00;98677.63;5076557;28;20206;-69
2023/10/21 00:32:40;;;;;;;10.68;6.38;;;7.00;99.90;;;7.03;100.00;98680.69;5067340;28;20223;-66
2023/10/21 00:35:09;;;;;;;8.82;4.82;;;7.00;99.90;;;7.08;100.00;98664.66;5079743;28;20324;-68
2023/10/21 00:37:38;;;;;;;4.95;3.42;;;7.00;99.90;;;7.06;100.00;98659.53;5067992;28;20224;-68
2023/10/21 00:40:11;;;;;;;9.68;3.92;;;7.00;99.90;;;7.08;100.00;98653.91;5080387;28;20199;-69
2023/10/21 00:42:39;;;;;;;8.48;5.57;;;7.00;99.90;;;7.08;100.00;98662.78;5084390;28;20211;-68
2023/10/21 00:45:09;;;;;;;8.98;6.72;;;7.00;99.90;;;7.08;100.00;98657.41;5082404;28;20272;-68
2023/10/21 00:47:38;;;;;;;20.02;4.05;;;7.00;99.90;;;7.05;100.00;98660.59;5070030;28;20203;-67
2023/10/21 00:50:08;;;;;;;8.50;4.22;;;7.00;99.90;;;6.99;100.00;98661.50;5066591;28;20195;-68
2023/10/21 00:52:46;;;;;;;8.35;4.65;;;7.00;99.90;;;7.03;100.00;98661.84;5084120;28;20215;-67
2023/10/21 00:55:16;;;;;;;9.38;4.80;;;7.00;99.90;;;7.09;100.00;98667.13;5083589;28;20294;-66
2023/10/21 00:57:45;;;;;;;9.95;5.47;;;7.00;99.90;;;7.12;100.00;98671.22;5067183;28;20277;-68
2023/10/21 01:00:16;;;;;;;5.78;3.58;;;7.00;99.90;;;7.13;100.00;98678.22;5085023;28;20191;-67
2023/10/21 01:02:47;;;;;;;7.15;3.10;;;7.10;99.90;;;7.16;100.00;98689.34;5088627;28;20214;-68
2023/10/21 01:05:16;;;;;;;13.57;6.03;;;7.10;99.90;;;7.24;100.00;98675.56;5083408;28;20187;-69
2023/10/21 01:07:45;;;;;;;8.20;3.72;;;7.10;99.90;;;7.25;100.00;98674.50;5069279;28;20623;-69
2023/10/21 01:10:13;;;;;;;13.73;5.20;;;7.10;99.90;;;7.28;100.00;98686.66;5072305;28;20298;-67
2023/10/21 01:12:48;;;;;;;10.60;5.25;;;7.10;99.90;;;7.35;100.00;98688.19;5078622;28;20220;-70
2023/10/21 01:15:17;;;;;;;7.07;4.65;;;7.20;99.90;;;7.27;100.00;98690.38;5074034;28;20264;-68
2023/10/21 01:17:50;;;;;;;7.57;4.32;;;7.20;99.90;;;7.26;100.00;98694.16;5064713;28;20344;-69
2023/10/21 01:20:19;;;;;;;5.38;3.70;;;7.20;99.90;;;7.22;100.00;98704.53;5068315;28;20574;-68
2023/10/21 01:22:47;;;;;;;7.55;4.32;;;7.20;99.90;;;7.25;100.00;98720.22;5066862;28;20298;-68
2023/10/21 01:25:17;;;;;;;13.02;6.53;;;7.20;99.90;;;7.40;100.00;98704.44;5082365;28;20785;-68
2023/10/21 01:27:46;;;;;;;8.52;4.55;;;7.30;99.90;;;7.30;100.00;98703.38;5086730;28;20183;-68
2023/10/21 01:30:18;;;;;;;9.73;5.80;;;7.30;99.90;;;7.27;100.00;98687.69;5061054;28;20196;-67
2023/10/21 01:32:47;;;;;;;10.25;5.45;;;7.20;99.90;;;7.31;100.00;98681.63;5085866;28;20233;-67
2023/10/21 01:39:29;;;;;;;9.63;5.10;;;7.20;99.90;;;7.25;100.00;98687.94;5081619;28;20183;-68
2023/10/21 01:41:59;;;;;;;11.05;5.57;;;7.20;99.90;;;7.36;100.00;98695.19;5072910;28;20264;-67
2023/10/21 01:44:28;;;;;;;10.93;5.80;;;7.30;99.90;;;7.32;100.00;98701.28;5078681;28;20207;-68
2023/10/21 01:46:56;;;;;;;12.60;6.75;;;7.30;99.90;;;7.27;100.00;98699.28;5090261;28;20183;-68
2023/10/21 01:49:25;;;;;;;10.00;5.30;;;7.20;99.90;;;7.26;100.00;98710.28;5092357;28;20210;-66
2023/10/21 01:51:54;;;;;;;9.50;5.05;;;7.20;99.90;;;7.34;100.00;98707.25;5089380;28;20219;-67
2023/10/21 01:54:23;;;;;;;14.40;7.03;;;7.30;99.90;;;7.32;100.00;98699.41;5071924;28;20215;-68
2023/10/21 01:56:52;;;;;;;8.57;5.47;;;7.20;99.90;;;7.25;100.00;98693.34;5086879;28;20187;-67
2023/10/21 01:59:22;;;;;;;7.82;6.00;;;7.20;99.90;;;7.37;100.00;98696.81;5072098;28;20197;-68
2023/10/21 02:01:51;;;;;;;16.55;5.18;;;7.30;99.90;;;7.39;100.00;98697.41;5073015;28;20201;-68
2023/10/21 02:04:19;;;;;;;16.73;5.57;;;7.30;99.90;;;7.47;100.00;98696.22;5081068;28;20218;-67
2023/10/21 02:06:48;;;;;;;8.90;4.25;;;7.30;99.90;;;7.42;100.00;98690.75;5090497;28;20202;-69
2023/10/21 02:09:17;;;;;;;13.02;4.80;;;7.30;99.90;;;7.41;100.00;98691.78;5083420;28;20192;-68
2023/10/21 02:11:45;;;;;;;15.50;5.38;;;7.30;99.90;;;7.31;100.00;98692.38;5082173;28;20562;-67
2023/10/21 02:14:14;;;;;;;11.50;5.45;;;7.30;99.90;;;7.39;100.00;98699.28;5089460;28;20283;-66
2023/10/21 02:16:44;;;;;;;11.00;4.63;;;7.30;99.90;;;7.40;100.00;98706.31;5068565;28;20278;-68
2023/10/21 02:19:12;;;;;;;14.48;6.20;;;7.30;99.90;;;7.46;100.00;98709.91;5085218;28;20265;-69
2023/10/21 02:21:42;;;;;;;13.30;5.55;;;7.40;99.90;;;7.57;100.00;98712.59;5080530;28;20187;-68
2023/10/21 02:24:10;;;;;;;10.43;5.63;;;7.40;99.90;;;7.42;100.00;98710.41;5068445;28;20208;-65
2023/10/21 02:26:39;;;;;;;11.57;7.30;;;7.40;99.90;;;7.46;100.00;98712.59;5075616;28;20199;-67
2023/10/21 02:29:09;;;;;;;9.65;6.10;;;7.40;99.90;;;7.47;100.00;98712.38;5075554;28;20200;-68
2023/10/21 02:31:38;;;;;;;10.27;5.88;;;7.40;99.90;;;7.43;100.00;98722.81;5075233;28;20195;-67
2023/10/21 02:34:08;;;;;;;8.80;6.22;;;7.40;99.90;;;7.45;100.00;98724.44;5069629;28;20195;-67
2023/10/21 02:36:36;;;;;;;7.68;4.90;;;7.40;99.90;;;7.45;100.00;98724.44;5084800;28;20204;-69
2023/10/21 02:39:07;;;;;;;18.88;6.72;;;7.40;99.90;;;7.55;100.00;98730.06;5067339;28;20189;-68
2023/10/21 02:41:36;;;;;;;10.27;6.07;;;7.50;99.90;;;7.51;100.00;98734.25;5087362;28;20211;-68
2023/10/21 02:44:05;;;;;;;11.82;5.82;;;7.40;99.90;;;7.45;100.00;98740.59;5082703;28;20208;-68
2023/10/21 02:46:34;;;;;;;10.45;5.47;;;7.40;99.90;;;7.49;100.00;98741.75;5072888;28;20207;-67
2023/10/21 02:49:02;;;;;;;12.48;5.85;;;7.40;99.90;;;7.62;100.00;98752.28;5085628;28;20269;-68
2023/10/21 02:51:35;;;;;;;15.68;5.40;;;7.50;99.90;;;7.56;100.00;98745.13;5081797;28;20188;-69
2023/10/21 02:54:03;;;;;;;13.50;6.80;;;7.40;99.90;;;7.62;100.00;98750.41;5082802;28;20187;-68
2023/10/21 02:56:32;;;;;;;8.40;3.80;;;7.50;99.90;;;7.67;100.00;98757.78;5070063;28;20223;-69
2023/10/21 02:59:00;;;;;;;8.15;4.95;;;7.50;99.90;;;7.60;100.00;98759.78;5073634;28;20542;-68
2023/10/21 03:01:29;;;;;;;47.70;6.90;;;7.60;99.90;;;7.59;100.00;98775.09;5082115;28;20195;-69
2023/10/21 03:03:58;;;;;;;12.63;5.32;;;7.50;99.90;;;7.58;100.00;98778.84;5085063;28;20218;-67
2023/10/21 03:06:27;;;;;;;8.40;3.88;;;7.50;99.90;;;7.51;100.00;98777.31;5072629;28;20203;-67
2023/10/21 03:08:57;;;;;;;13.48;5.15;;;7.50;99.90;;;7.59;100.00;98779.66;5071805;28;20221;-67
2023/10/21 03:11:25;;;;;;;11.98;7.20;;;7.50;99.90;;;7.57;100.00;98779.06;5090329;28;20197;-67
2023/10/21 03:13:54;;;;;;;12.43;5.15;;;7.50;99.90;;;7.51;100.00;98771.94;5087946;28;20207;-67
2023/10/21 03:16:23;;;;;;;12.05;5.65;;;7.50;99.90;;;7.64;100.00;98780.59;5073708;28;20199;-68
2023/10/21 03:18:52;;;;;;;12.13;5.88;;;7.50;99.90;;;7.68;100.00;98772.88;5083463;28;20212;-68
2023/10/21 03:21:21;;;;;;;27.83;5.45;;;7.60;99.90;;;7.68;100.00;98767.50;5064574;28;20206;-68
2023/10/21 03:23:49;;;;;;;9.27;4.75;;;7.60;99.90;;;7.63;100.00;98765.50;5081083;28;20633;-67
2023/10/21 03:26:19;;;;;;;16.70;5.30;;;7.60;99.90;;;7.54;100.00;98771.47;5086604;28;20255;-68
2023/10/21 03:28:50;;;;;;;14.60;4.85;;;7.50;99.90;;;7.54;100.00;98777.69;5087554;28;20686;-68
2023/10/21 03:31:19;;;;;;;9.30;5.15;;;7.50;99.90;;;7.54;100.00;98788.44;5084113;28;20200;-68
2023/10/21 03:33:48;;;;;;;11.10;5.35;;;7.50;99.90;;;7.52;100.00;98782.47;5086748;28;20260;-68
2023/10/21 03:36:17;;;;;;;12.48;5.55;;;7.50;99.90;;;7.62;100.00;98781.88;5087097;28;20693;-68
2023/10/21 03:38:46;;;;;;;10.13;5.40;;;7.50;99.90;;;7.55;100.00;98781.97;5083715;28;20201;-66
2023/10/21 03:41:16;;;;;;;19.75;4.78;;;7.50;99.90;;;7.53;100.00;98777.91;5085435;28;20196;-66
2023/10/21 03:43:46;;;;;;;6.28;3.90;;;7.50;99.90;;;7.63;100.00;98786.22;5083984;28;20298;-67
2023/10/21 03:46:15;;;;;;;11.80;7.05;;;7.50;99.90;;;7.53;100.00;98780.59;5060634;28;20207;-67
2023/10/21 03:48:44;;;;;;;7.95;4.68;;;7.50;99.90;;;7.67;100.00;98787.38;5066102;28;20210;-68
2023/10/21 03:51:14;;;;;;;21.13;7.10;;;7.50;99.90;;;7.58;100.00;98788.78;5077080;28;20680;-66
2023/10/21 03:53:44;;;;;;;16.30;6.13;;;7.50;99.90;;;7.57;100.00;98792.53;5081982;28;20216;-68
2023/10/21 03:56:13;;;;;;;12.45;4.93;;;7.50;99.90;;;7.51;100.00;98798.84;5087268;28;20736;-69
2023/10/21 03:58:42;;;;;;;8.48;4.43;;;7.50;99.90;;;7.52;100.00;98800.47;5079292;28;20210;-69
2023/10/21 04:01:12;;;;;;;11.63;4.70;;;7.50;99.90;;;7.45;100.00;98789.03;5082493;28;20195;-65
2023/10/21 04:03:40;;;;;;;11.50;6.60;;;7.40;99.90;;;7.42;100.00;98791.13;5076897;28;20239;-66
2023/10/21 04:06:09;;;;;;;12.88;6.07;;;7.40;99.90;;;7.48;100.00;98788.53;5085226;28;20200;-67
2023/10/21 04:08:38;;;;;;;30.08;7.13;;;7.40;99.90;;;7.48;100.00;98784.00;5081546;28;20644;-67
2023/10/21 04:11:08;;;;;;;10.15;4.57;;;7.40;99.90;;;7.53;100.00;98788.66;5081409;28;20230;-66
2023/10/21 04:13:36;;;;;;;10.25;5.63;;;7.50;99.90;;;7.56;100.00;98778.25;5069316;28;20701;-67
2023/10/21 04:16:05;;;;;;;9.40;5.78;;;7.50;99.90;;;7.57;100.00;98769.13;5087585;28;20183;-67
2023/10/21 04:18:36;;;;;;;13.07;6.72;;;7.50;99.90;;;7.54;100.00;98782.25;5090706;28;20187;-67
2023/10/21 04:21:05;;;;;;;24.23;5.10;;;7.50;99.90;;;7.49;100.00;98780.25;5078439;28;20690;-66
2023/10/21 04:23:34;;;;;;;4.78;3.00;;;7.50;99.90;;;7.41;100.00;98785.97;5083470;28;20621;-67
2023/10/21 04:26:05;;;;;;;13.68;5.60;;;7.40;99.90;;;7.39;100.00;98780.84;5081421;28;20207;-67
2023/10/21 04:28:34;;;;;;;8.43;6.20;;;7.40;99.90;;;7.50;100.00;98781.91;5086384;28;20612;-67
2023/10/21 04:31:03;;;;;;;9.02;5.90;;;7.40;99.90;;;7.57;100.00;98795.22;5082120;28;20282;-67
2023/10/21 04:33:31;;;;;;;7.40;4.22;;;7.50;99.90;;;7.54;100.00;98804.59;5087802;28;20268;-68
2023/10/21 04:36:01;;;;;;;10.32;5.30;;;7.50;99.90;;;7.53;100.00;98799.44;5087815;28;20183;-68
2023/10/21 04:38:30;;;;;;;14.50;5.07;;;7.50;99.90;;;7.56;100.00;98798.97;5084550;28;20219;-67
2023/10/21 04:40:58;;;;;;;5.65;3.90;;;7.50;99.90;;;7.57;100.00;98798.72;5086586;28;20565;-67
2023/10/21 04:43:27;;;;;;;34.38;4.07;;;7.50;99.90;;;7.53;100.00;98799.44;5083130;28;20299;-69
2023/10/21 04:45:55;;;;;;;12.82;5.72;;;7.50;99.90;;;7.51;100.00;98806.91;5078276;28;20212;-67
2023/10/21 04:48:24;;;;;;;17.92;6.80;;;7.50;99.90;;;7.59;100.00;98806.59;5091999;28;20192;-67
2023/10/21 04:50:52;;;;;;;7.75;4.85;;;7.50;99.90;;;7.57;100.00;98811.38;5088366;28;20201;-66
2023/10/21 04:53:22;;;;;;;7.60;4.82;;;7.50;99.90;;;7.65;100.00;98811.03;5090933;28;20217;-69
2023/10/21 04:55:51;;;;;;;11.60;6.22;;;7.50;99.90;;;7.58;100.00;98810.31;5085554;28;20192;-69
2023/10/21 04:58:19;;;;;;;7.85;4.55;;;7.50;99.90;;;7.66;100.00;98809.97;5087046;28;20552;-68
2023/10/21 05:00:48;;;;;;;9.85;7.20;;;7.50;99.90;;;7.58;100.00;98804.94;5083354;28;20702;-69
2023/10/21 05:03:16;;;;;;;6.35;5.55;;;7.50;99.90;;;7.53;100.00;98807.50;5084274;28;20207;-68
2023/10/21 05:05:45;;;;;;;10.07;6.13;;;7.50;99.90;;;7.58;100.00;98811.16;5089071;28;20280;-68
2023/10/21 05:08:14;;;;;;;10.55;5.45;;;7.50;99.90;;;7.58;100.00;98810.31;5086471;28;20191;-68
2023/10/21 05:10:44;;;;;;;8.88;4.45;;;7.50;99.90;;;7.52;100.00;98808.56;5080924;28;20215;-69
2023/10/21 05:13:12;;;;;;;13.90;5.28;;;7.50;99.90;;;7.50;100.00;98805.28;5089839;28;20237;-68
2023/10/21 05:15:41;;;;;;;5.88;4.72;;;7.50;99.90;;;7.51;100.00;98804.22;5070352;28;20198;-69
2023/10/21 05:18:10;;;;;;;13.38;5.15;;;7.50;99.90;;;7.51;100.00;98798.84;5092934;28;20229;-67
2023/10/21 05:20:38;;;;;;;34.92;7.60;;;7.50;99.90;;;7.52;100.00;98804.00;5086017;28;20202;-67
2023/10/21 05:23:07;;;;;;;20.42;7.95;;;7.50;99.90;;;7.50;100.00;98811.50;5086641;28;20218;-68
2023/10/21 05:25:36;;;;;;;33.85;5.75;;;7.50;99.90;;;7.47;100.00;98811.13;5091642;28;20202;-68
2023/10/21 05:28:06;;;;;;;13.88;4.47;;;7.40;99.90;;;7.52;100.00;98805.88;5090262;28;20719;-68
2023/10/21 05:30:35;;;;;;;27.85;5.22;;;7.50;99.90;;;7.47;100.00;98829.97;5090172;28;20190;-68
2023/10/21 05:33:04;;;;;;;9.43;5.68;;;7.40;99.90;;;7.54;100.00;98846.84;5087683;28;20223;-69
2023/10/21 05:35:37;;;;;;;19.92;5.85;;;7.50;99.90;;;7.51;100.00;98848.09;5089475;28;20544;-66
2023/10/21 05:38:06;;;;;;;8.13;4.63;;;7.50;99.90;;;7.53;100.00;98839.81;5088805;28;20733;-67
2023/10/21 05:40:35;;;;;;;12.45;6.63;;;7.50;99.90;;;7.49;100.00;98844.84;5092201;28;20200;-69
2023/10/21 05:43:04;;;;;;;6.22;4.85;;;7.50;99.90;;;7.56;100.00;98831.25;5087975;28;20207;-68
2023/10/21 05:45:35;;;;;;;19.08;5.40;;;7.50;99.90;;;7.54;100.00;98830.69;5089831;28;20192;-68
2023/10/21 05:48:05;;;;;;;8.65;5.05;;;7.50;99.90;;;7.55;100.00;98826.94;5086063;28;20307;-68
2023/10/21 05:50:33;;;;;;;12.57;5.57;;;7.50;99.90;;;7.54;100.00;98841.44;5090662;28;20213;-67
2023/10/21 05:53:03;;;;;;;10.43;4.90;;;7.50;99.90;;;7.53;100.00;98840.63;5088438;28;20252;-66
2023/10/21 05:55:32;;;;;;;7.95;4.03;;;7.50;99.90;;;7.56;100.00;98845.53;5088686;28;20265;-68
2023/10/21 05:58:00;;;;;;;17.77;5.45;;;7.50;99.90;;;7.59;100.00;98849.66;5088278;28;20246;-68
2023/10/21 06:00:29;;;;;;;14.68;6.25;;;7.50;99.90;;;7.53;100.00;98851.38;5089048;28;20669;-68
2023/10/21 06:02:59;;;;;;;17.45;6.45;;;7.50;99.90;;;7.64;100.00;98852.47;5086309;28;20215;-68
2023/10/21 06:05:28;;;;;;;12.90;6.35;;;7.50;99.90;;;7.60;100.00;98864.75;5085831;28;20218;-67
2023/10/21 06:07:57;;;;;;;10.55;5.25;;;7.60;99.90;;;7.66;100.00;98874.56;5090731;28;20187;-69
2023/10/21 06:10:26;;;;;;;8.70;5.90;;;7.60;99.90;;;7.76;100.00;98872.94;5082716;28;20192;-67
2023/10/21 06:12:54;;;;;;;18.08;5.45;;;7.70;99.90;;;7.80;100.00;98873.28;5092268;28;20581;-68
2023/10/21 06:15:23;;;;;;;20.60;7.05;;;7.70;99.90;;;7.81;100.00;98875.75;5090095;28;20342;-69
2023/10/21 06:17:52;;;;;;;30.42;5.13;;;7.70;99.90;;;7.79;100.00;98885.13;5078994;28;20642;-68
2023/10/21 06:20:24;;;;;;;11.85;6.05;;;7.70;99.90;;;7.81;100.00;98883.84;5090649;28;20207;-67
2023/10/21 06:22:52;;;;;;;23.25;4.60;;;7.70;99.90;;;7.95;100.00;98880.91;5088158;28;20273;-69
2023/10/21 06:25:21;;;;;;;9.45;6.15;;;7.80;99.90;;;7.88;100.00;98881.03;5090182;28;20234;-68
2023/10/21 06:27:49;;;;;;;10.85;5.60;;;7.80;99.90;;;7.90;100.00;98884.31;5094766;28;20212;-67
2023/10/21 06:30:18;;;;;;;11.88;6.53;;;7.80;99.90;;;7.91;100.00;98877.88;5087439;28;20199;-67
2023/10/21 06:32:46;;;;;;;38.97;6.32;;;7.80;99.90;;;7.93;100.00;98878.47;5086514;28;20575;-69
2023/10/21 06:35:15;;;;;;;8.85;5.38;;;7.80;99.90;;;7.93;100.00;98878.47;5090240;28;20221;-67
2023/10/21 06:37:45;;;;;;;9.05;4.60;;;7.80;99.90;;;7.95;100.00;98892.50;5083807;28;20253;-68
2023/10/21 06:40:13;;;;;;;14.15;4.95;;;7.80;99.90;;;8.10;100.00;98900.94;5087056;28;20560;-68
2023/10/21 06:42:55;;;;;;;13.55;4.82;;;7.90;99.90;;;8.20;100.00;98913.81;5089040;28;20794;-68
2023/10/21 06:45:24;;;;;;;14.93;5.68;;;8.00;99.90;;;8.12;100.00;98906.94;5084812;28;20187;-66
2023/10/21 06:47:53;;;;;;;5.70;3.92;;;8.00;99.90;;;8.11;100.00;98913.38;5086069;28;20610;-68
2023/10/21 06:50:22;;;;;;;13.23;5.53;;;8.00;99.90;;;8.13;100.00;98913.94;5091309;28;20538;-68
2023/10/21 06:52:52;;;;;;;8.07;5.05;;;8.00;99.90;;;8.19;100.00;98918.41;5089494;28;20214;-68
2023/10/21 06:55:21;;;;;;;27.60;5.15;;;8.00;99.90;;;8.16;100.00;98916.19;5087380;28;20653;-66
2023/10/21 06:57:52;;;;;;;14.02;4.90;;;8.00;99.90;;;8.23;100.00;98910.66;5088052;28;20190;-67
2023/10/21 07:00:21;;;;;;;22.35;6.03;;;8.10;99.90;;;8.13;100.00;98911.25;5087691;28;20191;-66
2023/10/21 07:02:50;;;;;;;10.32;5.35;;;8.10;99.90;;;8.18;100.00;98914.06;5089079;28;20234;-68
2023/10/21 07:05:19;;;;;;;6.95;3.72;;;8.00;99.90;;;8.20;100.00;98911.97;5089756;28;20199;-68
2023/10/21 07:07:48;;;;;;;6.68;3.85;;;8.10;99.90;;;8.23;100.00;98921.44;5088597;28;20218;-66
2023/10/21 07:10:18;;;;;;;15.90;3.80;;;8.10;99.90;;;8.33;100.00;98926.28;5092756;28;20593;-65
2023/10/21 07:12:46;;;;;;;9.90;5.28;;;8.20;99.90;;;8.40;100.00;98932.38;5082915;28;20207;-69
2023/10/21 07:15:15;;;;;;;6.85;4.53;;;8.20;99.90;;;8.39;100.00;98933.41;5088597;28;20192;-65
2023/10/21 07:17:44;;;;;;;8.43;5.18;;;8.20;99.90;;;8.47;100.00;98938.47;5088990;28;20194;-68
2023/10/21 07:20:13;;;;;;;16.40;4.85;;;8.30;99.90;;;8.45;100.00;98945.94;5091938;28;20606;-66
2023/10/21 07:22:45;;;;;;;9.95;6.32;;;8.30;99.90;;;8.65;100.00;98949.09;5083962;28;20222;-67
2023/10/21 07:25:13;;;;;;;13.02;6.25;;;8.40;99.90;;;8.66;100.00;98954.28;5080370;28;20202;-66
2023/10/21 07:27:43;;;;;;;11.15;4.45;;;8.50;99.90;;;8.69;100.00;98952.97;5089211;28;20215;-68
2023/10/21 07:30:14;;;;;;;18.95;6.28;;;8.50;99.90;;;8.79;100.00;98958.56;5093289;28;20194;-69
2023/10/21 07:32:44;;;;;;;10.13;5.75;;;8.60;99.90;;;8.94;100.00;98961.59;5084901;28;20239;-65
2023/10/21 07:35:14;;;;;;;7.03;4.05;;;8.60;99.90;;;8.97;100.00;98954.88;5085251;28;20199;-68
2023/10/21 07:37:44;;;;;;;10.45;6.35;;;8.70;99.90;;;9.00;100.00;98960.66;5085572;28;20199;-67
2023/10/21 07:40:14;;;;;;;12.80;5.07;;;8.80;99.90;;;9.14;100.00;98967.41;5078865;28;20268;-68
2023/10/21 07:42:44;;;;;;;12.02;5.22;;;8.80;99.90;;;9.23;100.00;98965.16;5085679;28;20289;-65
2023/10/21 07:45:14;;;;;;;13.38;5.45;;;8.90;99.90;;;9.24;100.00;98963.28;5065699;28;20551;-68
2023/10/21 07:47:43;;;;;;;10.98;5.25;;;9.00;99.90;;;9.20;100.00;98959.41;5085292;28;20670;-69
2023/10/21 07:50:13;;;;;;;10.27;5.93;;;9.00;99.90;;;9.22;100.00;98965.38;5081828;28;20206;-68
2023/10/21 07:52:42;;;;;;;11.48;5.72;;;9.00;99.90;;;9.19;100.00;98965.88;5086838;28;20298;-67
2023/10/21 07:55:12;;;;;;;14.73;7.97;;;9.00;99.90;;;9.36;100.00;98977.53;5088071;28;20191;-68
2023/10/21 07:57:40;;;;;;;11.55;5.43;;;9.10;99.90;;;9.47;100.00;98965.88;5089132;28;20190;-68
2023/10/21 08:00:14;;;;;;;12.98;5.90;;;9.20;99.90;;;9.44;100.00;98972.56;5083509;28;20195;-67
2023/10/21 08:02:43;;;;;;;11.38;6.60;;;9.20;99.90;;;9.49;100.00;98982.63;5086502;28;20212;-66
2023/10/21 08:05:13;;;;;;;13.70;5.57;;;9.30;99.90;;;9.55;100.00;98970.88;5080270;28;20270;-68
2023/10/21 08:07:41;;;;;;;9.95;4.90;;;9.30;99.90;;;9.62;100.00;98966.16;5081525;28;20195;-68
2023/10/21 08:10:10;;;;;;;14.00;6.22;;;9.40;99.90;;;9.85;100.00;98968.72;5087761;28;20241;-68
2023/10/21 08:12:39;;;;;;;13.37;5.90;;;9.50;99.90;;;9.99;100.00;98971.91;5086101;28;20233;-69
2023/10/21 08:15:10;;;;;;;8.93;4.50;;;9.60;99.90;;;10.23;100.00;98988.81;5083223;28;20487;-69
2023/10/21 08:17:39;;;;;;;11.93;6.00;;;;;;;10.53;100.00;98992.00;5079565;28;21043;-67
2023/10/21 08:20:09;;;;;;;16.13;7.30;;;;;;;10.57;100.00;98993.16;5085638;28;20464;-67
2023/10/21 08:22:39;;;;;;;13.57;6.97;;;;;;;10.74;100.00;98998.53;5086100;28;20424;-68
2023/10/21 08:25:08;;;;;;;13.67;6.33;;;;;;;10.75;100.00;99000.97;5084243;28;20958;-69
2023/10/21 08:27:37;;;;;;;11.67;5.80;;;;;;;10.84;100.00;99004.91;5086638;28;20857;-68
2023/10/21 08:30:09;;;;;;;12.57;7.20;;;;;;;11.12;100.00;99006.66;5080822;28;20425;-70
2023/10/21 08:32:39;;;;;;;15.87;7.50;;;;;;;11.50;100.00;99013.03;5079834;28;20475;-68
2023/10/21 08:35:09;;;;;;;11.43;7.53;;;;;;;11.69;100.00;99011.63;5082521;28;20433;-66
2023/10/21 08:37:37;;;;;;;11.80;6.80;;;;;;;11.63;100.00;99018.88;5079077;28;20461;-69
2023/10/21 08:40:10;;;;;;;8.93;6.90;;;;;;;11.38;100.00;99015.06;5079453;28;20430;-68
2023/10/21 08:42:40;;;;;;;11.80;5.50;;;;;;;11.38;100.00;99026.72;5086738;28;20428;-70
2023/10/21 08:45:30;;;;;;;8.80;5.30;;;;;;;11.55;100.00;99027.47;5082877;28;20466;-67
2023/10/21 08:48:03;;;;;;;8.97;5.63;;;;;;;11.72;100.00;99033.63;5087039;28;20457;-68
2023/10/21 08:50:36;;;;;;;10.83;5.40;;;;;;;11.74;100.00;99038.81;5084918;28;20520;-66
2023/10/21 08:53:09;;;;;;;9.50;5.87;;;;;;;11.95;100.00;99042.56;5083608;28;20461;-66
2023/10/21 08:55:40;;;;;;;11.47;5.23;;;;;;;12.06;100.00;99045.09;5083500;28;20434;-66
2023/10/21 08:58:10;;;;;;;6.67;5.40;;;;;;;12.15;100.00;99048.97;5087742;28;20432;-67
2023/10/21 09:00:41;;;;;;;9.73;6.00;;;;;;;12.17;100.00;99051.44;5078200;28;20502;-67
2023/10/21 09:03:13;;;;;;;9.00;6.33;;;;;;;12.24;100.00;99046.66;5077610;28;20901;-67
2023/10/21 09:06:04;;;;;;;9.17;6.70;;;;;;;12.16;100.00;99055.22;5081970;28;20430;-68
2023/10/21 09:08:34;;;;;;;5.37;4.87;;;;;;;12.35;100.00;99055.66;5081586;28;20451;-67
2023/10/21 09:11:06;;;;;;;10.40;5.37;;;;;;;12.43;100.00;99053.31;5087048;28;20449;-67
2023/10/21 09:13:36;;;;;;;8.50;6.10;;;;;;;12.58;100.00;99049.91;5086320;28;20463;-69
2023/10/21 09:16:20;;;;;;;8.07;4.80;;;;;;;12.67;100.00;99051.06;5074812;28;20526;-67
2023/10/21 09:19:01;;;;;;;9.80;5.07;;;;;;;12.85;100.00;99057.97;5079201;28;20952;-67
2023/10/21 09:21:36;;;;;;;5.93;4.33;;;;;;;12.95;100.00;99060.75;5075993;28;20409;-68
2023/10/21 09:24:06;;;;;;;8.90;5.90;;;;;;;13.14;100.00;99061.16;5080249;28;20403;-67
2023/10/21 09:26:36;;;;;;;9.93;7.07;;;;;;;12.96;100.00;99067.81;5082377;28;20407;-68
2023/10/21 09:29:11;;;;;;;12.07;6.33;;;;;;;13.15;100.00;99066.34;5078732;28;20544;-67
2023/10/21 09:31:51;;;;;;;8.17;5.23;;;;;;;13.10;100.00;99070.88;5077564;28;20525;-67
2023/10/21 09:34:27;;;;;;;5.83;4.63;;;;;;;13.13;100.00;99079.34;5079558;28;20443;-67
2023/10/21 09:36:58;;;;;;;6.53;4.80;;;;;;;13.23;100.00;99075.88;5084298;28;20635;-66
2023/10/21 09:39:30;;;;;;;6.47;5.03;;;;;;;13.28;100.00;99082.16;5079062;28;20982;-67
2023/10/21 09:42:01;;;;;;;9.03;5.87;;;;;;;13.46;100.00;99087.13;5082258;28;20477;-66
2023/10/21 09:44:30;;;;;;;6.40;4.30;;;;;;;13.54;100.00;99085.00;5083863;28;20468;-67
2023/10/21 09:47:01;;;;;;;9.40;5.87;;;;;;;13.70;100.00;99081.28;5076849;28;20419;-67
2023/10/21 09:49:37;;;;;;;6.50;5.20;;;;;;;13.88;100.00;99099.81;5082976;28;20447;-67
2023/10/21 09:52:09;;;;;;;6.17;5.03;;;;;;;14.11;100.00;99096.63;5070335;28;20456;-66
2023/10/21 09:54:44;;;;;;;7.80;5.90;;;;;;;13.85;100.00;99090.28;5084881;28;20502;-66
2023/10/21 09:57:14;;;;;;;6.03;4.60;;;;;;;14.20;100.00;99095.00;5077366;28;20393;-68
2023/10/21 09:59:44;;;;;;;6.57;4.87;;;;;;;14.10;100.00;99092.25;5084945;28;20503;-67
2023/10/21 10:02:19;;;;;;;6.60;5.10;;;;;;;14.45;100.00;99109.75;5068966;28;20489;-66
2023/10/21 10:04:50;;;;;;;8.67;5.20;;;;;;;14.27;100.00;99109.16;5086060;28;20948;-68
2023/10/21 10:07:20;;;;;;;5.17;3.70;;;;;;;14.14;100.00;99096.06;5081050;28;20492;-68
2023/10/21 10:10:11;;;;;;;6.43;4.70;;;;;;;14.43;100.00;99107.31;5080310;28;20401;-68
2023/10/21 10:12:45;;;;;;;4.87;3.90;;;;;;;14.69;100.00;99110.88;5087748;28;20469;-67
2023/10/21 10:15:34;;;;;;;5.20;3.70;;;;;;;14.66;99.58;99108.69;5082819;28;20425;-68
2023/10/21 10:18:04;;;;;;;6.43;5.20;;;;;;;14.79;99.67;99117.13;5083627;28;20424;-65
2023/10/21 10:20:35;;;;;;;5.73;4.30;;;;;;;14.84;99.60;99112.78;5083476;28;20861;-66
2023/10/21 10:23:07;;;;;;;6.77;4.50;;;;;;;15.02;99.11;99115.75;5086691;28;20449;-68
2023/10/21 10:25:38;;;;;;;3.77;3.17;;;;;;;15.09;98.36;99115.47;5077400;28;20800;-69
2023/10/21 10:28:10;;;;;;;4.93;3.30;;;;;;;15.18;98.14;99111.94;5077104;28;20439;-68
2023/10/21 10:30:43;;;;;;;5.43;3.20;;;;;;;15.44;97.01;99117.31;5081498;28;20455;-66
2023/10/21 10:33:15;;;;;;;4.13;2.93;;;;;;;15.72;95.29;99114.00;5082983;28;20421;-68
2023/10/21 10:35:49;;;;;;;5.00;4.00;;;;;;;15.75;94.90;99118.06;5082546;28;20496;-67
2023/10/21 10:38:24;;;;;;;8.17;4.33;;;;;;;15.88;94.57;99123.72;5085874;28;20502;-68
2023/10/21 10:40:59;;;;;;;4.47;3.63;;;;;;;16.05;94.00;99118.75;5080608;28;20495;-68
2023/10/21 10:43:29;;;;;;;4.70;3.53;;;;;;;16.38;92.09;99124.56;5079906;28;20449;-68
2023/10/21 10:45:58;;;;;;;6.00;4.57;;;;;;;16.57;91.14;99130.97;5083144;28;20479;-65
2023/10/21 10:48:29;;;;;;;7.33;4.13;;;;;;;16.71;90.19;99137.47;5075004;28;20439;-66
2023/10/21 10:51:01;;;;;;;4.00;3.10;;;;;;;16.88;89.63;99143.34;5082264;28;20411;-68